sensor_id;sensor_type;location;lat;lon;timestamp;P1;durP1;ratioP1;P2;durP2;ratioP2
12788;SDS011;6458;42.710;23.192;2024-01-25T00:00:31;7.63;;;6.30;;
12788;SDS011;6458;42.710;23.192;2024-01-25T00:02:58;7.87;;;3.70;;
12788;SDS011;6458;42.710;23.192;2024-01-25T00:05:26;4.97;;;3.70;;
12788;SDS011;6458;42.710;23.192;2024-01-25T00:07:53;3.13;;;2.93;;
12788;SDS011;6458;42.710;23.192;2024-01-25T00:10:34;4.27;;;3.33;;
12788;SDS011;6458;42.710;23.192;2024-01-25T00:13:03;4.53;;;3.53;;
12788;SDS011;6458;42.710;23.192;2024-01-25T00:15:38;4.40;;;4.00;;
12788;SDS011;6458;42.710;23.192;2024-01-25T00:18:05;4.77;;;4.33;;
12788;SDS011;6458;42.710;23.192;2024-01-25T00:20:37;4.77;;;4.37;;
12788;SDS011;6458;42.710;23.192;2024-01-25T00:23:17;4.97;;;4.27;;
12788;SDS011;6458;42.710;23.192;2024-01-25T00:25:55;9.77;;;4.70;;
12788;SDS011;6458;42.710;23.192;2024-01-25T00:28:27;4.77;;;4.30;;
12788;SDS011;6458;42.710;23.192;2024-01-25T00:31:08;5.27;;;4.77;;
12788;SDS011;6458;42.710;23.192;2024-01-25T00:33:35;6.30;;;4.77;;
12788;SDS011;6458;42.710;23.192;2024-01-25T00:36:04;4.80;;;4.03;;
12788;SDS011;6458;42.710;23.192;2024-01-25T00:38:32;3.53;;;3.23;;
12788;SDS011;6458;42.710;23.192;2024-01-25T00:41:12;4.13;;;3.73;;
12788;SDS011;6458;42.710;23.192;2024-01-25T00:43:51;3.47;;;3.17;;
12788;SDS011;6458;42.710;23.192;2024-01-25T00:46:43;4.73;;;3.43;;
12788;SDS011;6458;42.710;23.192;2024-01-25T00:49:23;8.33;;;4.43;;
12788;SDS011;6458;42.710;23.192;2024-01-25T00:52:14;5.93;;;5.10;;
12788;SDS011;6458;42.710;23.192;2024-01-25T00:55:11;3.33;;;3.10;;
12788;SDS011;6458;42.710;23.192;2024-01-25T00:57:43;3.03;;;2.83;;
12788;SDS011;6458;42.710;23.192;2024-01-25T01:00:13;2.80;;;2.60;;
12788;SDS011;6458;42.710;23.192;2024-01-25T01:03:02;2.40;;;2.30;;
12788;SDS011;6458;42.710;23.192;2024-01-25T01:05:39;2.80;;;2.60;;
12788;SDS011;6458;42.710;23.192;2024-01-25T01:08:28;2.80;;;2.60;;
12788;SDS011;6458;42.710;23.192;2024-01-25T01:10:58;3.40;;;3.20;;
12788;SDS011;6458;42.710;23.192;2024-01-25T01:13:25;2.97;;;2.60;;
12788;SDS011;6458;42.710;23.192;2024-01-25T01:15:52;2.80;;;2.60;;
12788;SDS011;6458;42.710;23.192;2024-01-25T01:18:19;2.70;;;2.60;;
12788;SDS011;6458;42.710;23.192;2024-01-25T01:20:45;2.73;;;2.60;;
12788;SDS011;6458;42.710;23.192;2024-01-25T01:23:12;2.43;;;2.23;;
12788;SDS011;6458;42.710;23.192;2024-01-25T01:25:41;2.50;;;2.40;;
12788;SDS011;6458;42.710;23.192;2024-01-25T01:28:07;1.83;;;1.77;;
12788;SDS011;6458;42.710;23.192;2024-01-25T01:30:34;2.47;;;2.33;;
12788;SDS011;6458;42.710;23.192;2024-01-25T01:33:01;2.30;;;2.10;;
12788;SDS011;6458;42.710;23.192;2024-01-25T01:35:28;2.40;;;2.20;;
12788;SDS011;6458;42.710;23.192;2024-01-25T01:37:54;3.37;;;3.07;;
12788;SDS011;6458;42.710;23.192;2024-01-25T01:40:21;1.70;;;1.70;;
12788;SDS011;6458;42.710;23.192;2024-01-25T01:42:50;2.17;;;2.00;;
12788;SDS011;6458;42.710;23.192;2024-01-25T01:45:17;1.93;;;1.83;;
12788;SDS011;6458;42.710;23.192;2024-01-25T01:47:44;2.00;;;1.90;;
12788;SDS011;6458;42.710;23.192;2024-01-25T01:50:11;1.80;;;1.70;;
12788;SDS011;6458;42.710;23.192;2024-01-25T01:52:38;1.93;;;1.87;;
12788;SDS011;6458;42.710;23.192;2024-01-25T01:55:06;2.07;;;1.80;;
12788;SDS011;6458;42.710;23.192;2024-01-25T01:57:34;2.10;;;2.00;;
12788;SDS011;6458;42.710;23.192;2024-01-25T02:00:04;2.10;;;2.00;;
12788;SDS011;6458;42.710;23.192;2024-01-25T02:02:35;2.20;;;2.10;;
12788;SDS011;6458;42.710;23.192;2024-01-25T02:05:03;2.23;;;2.03;;
12788;SDS011;6458;42.710;23.192;2024-01-25T02:07:30;5.00;;;2.43;;
12788;SDS011;6458;42.710;23.192;2024-01-25T02:09:57;2.47;;;2.37;;
12788;SDS011;6458;42.710;23.192;2024-01-25T02:12:24;2.33;;;2.20;;
12788;SDS011;6458;42.710;23.192;2024-01-25T02:14:51;2.30;;;2.10;;
12788;SDS011;6458;42.710;23.192;2024-01-25T02:17:19;2.23;;;2.13;;
12788;SDS011;6458;42.710;23.192;2024-01-25T02:19:46;2.40;;;2.20;;
12788;SDS011;6458;42.710;23.192;2024-01-25T02:22:16;3.07;;;2.97;;
12788;SDS011;6458;42.710;23.192;2024-01-25T02:24:43;3.67;;;3.30;;
12788;SDS011;6458;42.710;23.192;2024-01-25T02:27:10;4.00;;;2.93;;
12788;SDS011;6458;42.710;23.192;2024-01-25T02:29:36;3.33;;;3.03;;
12788;SDS011;6458;42.710;23.192;2024-01-25T02:32:04;3.00;;;2.73;;
12788;SDS011;6458;42.710;23.192;2024-01-25T02:34:31;3.33;;;3.13;;
12788;SDS011;6458;42.710;23.192;2024-01-25T02:36:58;3.37;;;2.90;;
12788;SDS011;6458;42.710;23.192;2024-01-25T02:39:26;3.20;;;2.97;;
12788;SDS011;6458;42.710;23.192;2024-01-25T02:41:53;4.20;;;3.80;;
12788;SDS011;6458;42.710;23.192;2024-01-25T02:47:41;4.67;;;4.20;;
12788;SDS011;6458;42.710;23.192;2024-01-25T02:50:09;5.30;;;3.93;;
12788;SDS011;6458;42.710;23.192;2024-01-25T02:52:36;4.80;;;4.40;;
12788;SDS011;6458;42.710;23.192;2024-01-25T02:55:04;4.97;;;4.47;;
12788;SDS011;6458;42.710;23.192;2024-01-25T02:57:31;3.53;;;3.33;;
12788;SDS011;6458;42.710;23.192;2024-01-25T03:00:00;3.53;;;3.33;;
12788;SDS011;6458;42.710;23.192;2024-01-25T03:02:29;3.23;;;3.00;;
12788;SDS011;6458;42.710;23.192;2024-01-25T03:04:56;2.43;;;2.33;;
12788;SDS011;6458;42.710;23.192;2024-01-25T03:07:23;2.33;;;2.23;;
12788;SDS011;6458;42.710;23.192;2024-01-25T03:09:50;2.70;;;2.53;;
12788;SDS011;6458;42.710;23.192;2024-01-25T03:12:19;2.90;;;2.67;;
12788;SDS011;6458;42.710;23.192;2024-01-25T03:14:46;3.37;;;3.07;;
12788;SDS011;6458;42.710;23.192;2024-01-25T03:17:13;2.67;;;2.57;;
12788;SDS011;6458;42.710;23.192;2024-01-25T03:19:39;2.80;;;2.70;;
12788;SDS011;6458;42.710;23.192;2024-01-25T03:22:06;2.60;;;2.40;;
12788;SDS011;6458;42.710;23.192;2024-01-25T03:24:33;2.60;;;2.40;;
12788;SDS011;6458;42.710;23.192;2024-01-25T03:27:04;2.80;;;2.70;;
12788;SDS011;6458;42.710;23.192;2024-01-25T03:29:39;3.37;;;2.73;;
12788;SDS011;6458;42.710;23.192;2024-01-25T03:32:07;3.00;;;2.70;;
12788;SDS011;6458;42.710;23.192;2024-01-25T03:34:34;3.10;;;2.90;;
12788;SDS011;6458;42.710;23.192;2024-01-25T03:37:01;3.00;;;2.80;;
12788;SDS011;6458;42.710;23.192;2024-01-25T03:39:28;2.63;;;2.43;;
12788;SDS011;6458;42.710;23.192;2024-01-25T03:41:55;3.63;;;2.77;;
12788;SDS011;6458;42.710;23.192;2024-01-25T03:44:22;3.17;;;2.97;;
12788;SDS011;6458;42.710;23.192;2024-01-25T03:46:58;3.17;;;2.90;;
12788;SDS011;6458;42.710;23.192;2024-01-25T03:49:24;2.90;;;2.70;;
12788;SDS011;6458;42.710;23.192;2024-01-25T03:51:51;2.90;;;2.70;;
12788;SDS011;6458;42.710;23.192;2024-01-25T03:54:18;2.80;;;2.70;;
12788;SDS011;6458;42.710;23.192;2024-01-25T03:56:45;3.50;;;3.30;;
12788;SDS011;6458;42.710;23.192;2024-01-25T03:59:12;2.57;;;2.37;;
12788;SDS011;6458;42.710;23.192;2024-01-25T04:01:42;2.87;;;2.77;;
12788;SDS011;6458;42.710;23.192;2024-01-25T04:04:11;2.60;;;2.40;;
12788;SDS011;6458;42.710;23.192;2024-01-25T04:06:40;2.60;;;2.10;;
12788;SDS011;6458;42.710;23.192;2024-01-25T04:09:08;4.17;;;2.50;;
12788;SDS011;6458;42.710;23.192;2024-01-25T04:11:35;2.40;;;2.30;;
12788;SDS011;6458;42.710;23.192;2024-01-25T04:14:02;2.47;;;2.33;;
12788;SDS011;6458;42.710;23.192;2024-01-25T04:16:30;2.23;;;2.23;;
12788;SDS011;6458;42.710;23.192;2024-01-25T04:18:57;2.30;;;2.10;;
12788;SDS011;6458;42.710;23.192;2024-01-25T04:21:25;2.53;;;2.43;;
12788;SDS011;6458;42.710;23.192;2024-01-25T04:23:53;2.20;;;2.00;;
12788;SDS011;6458;42.710;23.192;2024-01-25T04:26:19;2.00;;;1.90;;
12788;SDS011;6458;42.710;23.192;2024-01-25T04:28:46;2.40;;;2.30;;
12788;SDS011;6458;42.710;23.192;2024-01-25T04:31:13;2.73;;;2.53;;
12788;SDS011;6458;42.710;23.192;2024-01-25T04:33:40;2.70;;;2.50;;
12788;SDS011;6458;42.710;23.192;2024-01-25T04:36:07;2.57;;;2.47;;
12788;SDS011;6458;42.710;23.192;2024-01-25T04:38:35;3.33;;;3.03;;
12788;SDS011;6458;42.710;23.192;2024-01-25T04:41:02;3.27;;;3.07;;
12788;SDS011;6458;42.710;23.192;2024-01-25T04:43:33;3.60;;;3.30;;
12788;SDS011;6458;42.710;23.192;2024-01-25T04:46:01;4.67;;;3.30;;
12788;SDS011;6458;42.710;23.192;2024-01-25T04:48:28;3.70;;;3.40;;
12788;SDS011;6458;42.710;23.192;2024-01-25T04:50:56;4.00;;;3.70;;
12788;SDS011;6458;42.710;23.192;2024-01-25T04:53:25;3.60;;;3.30;;
12788;SDS011;6458;42.710;23.192;2024-01-25T04:55:54;3.97;;;3.57;;
12788;SDS011;6458;42.710;23.192;2024-01-25T04:58:22;3.40;;;3.13;;
12788;SDS011;6458;42.710;23.192;2024-01-25T05:00:48;3.60;;;3.40;;
12788;SDS011;6458;42.710;23.192;2024-01-25T05:03:17;3.97;;;3.63;;
12788;SDS011;6458;42.710;23.192;2024-01-25T05:05:47;7.43;;;3.97;;
12788;SDS011;6458;42.710;23.192;2024-01-25T05:08:14;3.63;;;3.33;;
12788;SDS011;6458;42.710;23.192;2024-01-25T05:14:04;2.50;;;2.40;;
12788;SDS011;6458;42.710;23.192;2024-01-25T05:16:31;3.30;;;3.00;;
12788;SDS011;6458;42.710;23.192;2024-01-25T05:18:59;3.33;;;3.00;;
12788;SDS011;6458;42.710;23.192;2024-01-25T05:21:26;3.40;;;3.10;;
12788;SDS011;6458;42.710;23.192;2024-01-25T05:23:53;4.30;;;3.97;;
12788;SDS011;6458;42.710;23.192;2024-01-25T05:26:19;3.93;;;3.33;;
12788;SDS011;6458;42.710;23.192;2024-01-25T05:28:46;4.00;;;3.60;;
12788;SDS011;6458;42.710;23.192;2024-01-25T05:31:15;4.93;;;3.60;;
12788;SDS011;6458;42.710;23.192;2024-01-25T05:33:42;3.63;;;3.07;;
12788;SDS011;6458;42.710;23.192;2024-01-25T05:36:09;11.63;;;7.37;;
12788;SDS011;6458;42.710;23.192;2024-01-25T05:38:37;8.43;;;5.93;;
12788;SDS011;6458;42.710;23.192;2024-01-25T05:41:04;9.00;;;4.40;;
12788;SDS011;6458;42.710;23.192;2024-01-25T05:43:31;7.97;;;4.60;;
12788;SDS011;6458;42.710;23.192;2024-01-25T05:45:58;5.00;;;4.30;;
12788;SDS011;6458;42.710;23.192;2024-01-25T05:48:27;4.43;;;3.93;;
12788;SDS011;6458;42.710;23.192;2024-01-25T05:50:53;4.03;;;3.63;;
12788;SDS011;6458;42.710;23.192;2024-01-25T05:53:20;3.70;;;3.47;;
12788;SDS011;6458;42.710;23.192;2024-01-25T05:55:47;4.03;;;3.30;;
12788;SDS011;6458;42.710;23.192;2024-01-25T05:58:14;4.17;;;3.80;;
12788;SDS011;6458;42.710;23.192;2024-01-25T06:00:42;3.80;;;3.20;;
12788;SDS011;6458;42.710;23.192;2024-01-25T06:03:09;3.53;;;3.33;;
12788;SDS011;6458;42.710;23.192;2024-01-25T06:05:37;3.53;;;2.90;;
12788;SDS011;6458;42.710;23.192;2024-01-25T06:08:04;4.17;;;3.00;;
12788;SDS011;6458;42.710;23.192;2024-01-25T06:10:32;4.93;;;3.17;;
12788;SDS011;6458;42.710;23.192;2024-01-25T06:13:01;3.60;;;3.30;;
12788;SDS011;6458;42.710;23.192;2024-01-25T06:15:27;3.27;;;3.07;;
12788;SDS011;6458;42.710;23.192;2024-01-25T06:17:54;3.10;;;3.00;;
12788;SDS011;6458;42.710;23.192;2024-01-25T06:20:21;3.57;;;3.33;;
12788;SDS011;6458;42.710;23.192;2024-01-25T06:22:50;4.37;;;3.20;;
12788;SDS011;6458;42.710;23.192;2024-01-25T06:25:17;3.47;;;3.03;;
12788;SDS011;6458;42.710;23.192;2024-01-25T06:31:06;5.27;;;4.60;;
12788;SDS011;6458;42.710;23.192;2024-01-25T06:33:32;7.37;;;5.40;;
12788;SDS011;6458;42.710;23.192;2024-01-25T06:35:59;5.63;;;4.20;;
12788;SDS011;6458;42.710;23.192;2024-01-25T06:38:28;4.00;;;3.70;;
12788;SDS011;6458;42.710;23.192;2024-01-25T06:40:54;8.00;;;3.57;;
12788;SDS011;6458;42.710;23.192;2024-01-25T06:43:21;3.83;;;2.83;;
12788;SDS011;6458;42.710;23.192;2024-01-25T06:45:48;2.50;;;2.30;;
12788;SDS011;6458;42.710;23.192;2024-01-25T06:48:15;3.20;;;2.50;;
12788;SDS011;6458;42.710;23.192;2024-01-25T06:50:42;4.13;;;3.03;;
12788;SDS011;6458;42.710;23.192;2024-01-25T06:53:09;3.20;;;2.90;;
12788;SDS011;6458;42.710;23.192;2024-01-25T06:55:38;5.10;;;2.90;;
12788;SDS011;6458;42.710;23.192;2024-01-25T06:58:05;3.90;;;3.60;;
12788;SDS011;6458;42.710;23.192;2024-01-25T07:00:31;4.13;;;3.80;;
12788;SDS011;6458;42.710;23.192;2024-01-25T07:02:58;5.63;;;3.80;;
12788;SDS011;6458;42.710;23.192;2024-01-25T07:05:26;3.40;;;3.10;;
12788;SDS011;6458;42.710;23.192;2024-01-25T07:07:56;4.77;;;3.00;;
12788;SDS011;6458;42.710;23.192;2024-01-25T07:10:23;4.07;;;3.17;;
12788;SDS011;6458;42.710;23.192;2024-01-25T07:12:54;5.27;;;3.10;;
12788;SDS011;6458;42.710;23.192;2024-01-25T07:15:24;5.43;;;3.33;;
12788;SDS011;6458;42.710;23.192;2024-01-25T07:17:52;5.40;;;4.40;;
12788;SDS011;6458;42.710;23.192;2024-01-25T07:20:18;5.47;;;4.60;;
12788;SDS011;6458;42.710;23.192;2024-01-25T07:22:45;8.17;;;4.53;;
12788;SDS011;6458;42.710;23.192;2024-01-25T07:25:12;4.87;;;3.63;;
12788;SDS011;6458;42.710;23.192;2024-01-25T07:27:43;3.80;;;3.50;;
12788;SDS011;6458;42.710;23.192;2024-01-25T07:30:16;5.93;;;3.10;;
12788;SDS011;6458;42.710;23.192;2024-01-25T07:32:43;3.47;;;2.73;;
12788;SDS011;6458;42.710;23.192;2024-01-25T07:35:11;3.90;;;3.50;;
12788;SDS011;6458;42.710;23.192;2024-01-25T07:37:38;2.93;;;2.53;;
12788;SDS011;6458;42.710;23.192;2024-01-25T07:40:06;4.40;;;3.40;;
12788;SDS011;6458;42.710;23.192;2024-01-25T07:42:34;3.83;;;3.13;;
12788;SDS011;6458;42.710;23.192;2024-01-25T07:45:03;3.73;;;3.23;;
12788;SDS011;6458;42.710;23.192;2024-01-25T07:47:32;3.87;;;2.80;;
12788;SDS011;6458;42.710;23.192;2024-01-25T07:50:00;3.87;;;3.50;;
12788;SDS011;6458;42.710;23.192;2024-01-25T07:52:28;4.43;;;3.60;;
12788;SDS011;6458;42.710;23.192;2024-01-25T07:54:55;7.70;;;3.70;;
12788;SDS011;6458;42.710;23.192;2024-01-25T07:57:23;3.30;;;3.00;;
12788;SDS011;6458;42.710;23.192;2024-01-25T07:59:50;4.30;;;2.70;;
12788;SDS011;6458;42.710;23.192;2024-01-25T08:02:17;5.13;;;3.10;;
12788;SDS011;6458;42.710;23.192;2024-01-25T08:04:45;5.67;;;3.37;;
12788;SDS011;6458;42.710;23.192;2024-01-25T08:07:12;4.47;;;3.97;;
12788;SDS011;6458;42.710;23.192;2024-01-25T08:09:39;4.70;;;3.37;;
12788;SDS011;6458;42.710;23.192;2024-01-25T08:12:06;3.90;;;3.60;;
12788;SDS011;6458;42.710;23.192;2024-01-25T08:14:33;7.60;;;3.60;;
12788;SDS011;6458;42.710;23.192;2024-01-25T08:17:02;3.47;;;3.10;;
12788;SDS011;6458;42.710;23.192;2024-01-25T08:19:29;4.93;;;3.07;;
12788;SDS011;6458;42.710;23.192;2024-01-25T08:21:58;4.40;;;3.60;;
12788;SDS011;6458;42.710;23.192;2024-01-25T08:24:25;4.33;;;3.23;;
12788;SDS011;6458;42.710;23.192;2024-01-25T08:26:52;5.40;;;3.27;;
12788;SDS011;6458;42.710;23.192;2024-01-25T08:29:19;4.30;;;3.47;;
12788;SDS011;6458;42.710;23.192;2024-01-25T08:31:44;5.47;;;3.50;;
12788;SDS011;6458;42.710;23.192;2024-01-25T08:34:13;4.10;;;3.33;;
12788;SDS011;6458;42.710;23.192;2024-01-25T08:36:40;6.00;;;3.40;;
12788;SDS011;6458;42.710;23.192;2024-01-25T08:39:08;3.90;;;3.00;;
12788;SDS011;6458;42.710;23.192;2024-01-25T08:41:35;4.13;;;3.43;;
12788;SDS011;6458;42.710;23.192;2024-01-25T08:44:02;4.20;;;3.33;;
12788;SDS011;6458;42.710;23.192;2024-01-25T08:46:29;4.40;;;3.20;;
12788;SDS011;6458;42.710;23.192;2024-01-25T08:48:59;5.57;;;3.57;;
12788;SDS011;6458;42.710;23.192;2024-01-25T08:51:26;4.53;;;3.67;;
12788;SDS011;6458;42.710;23.192;2024-01-25T08:53:53;4.63;;;3.37;;
12788;SDS011;6458;42.710;23.192;2024-01-25T08:56:22;3.30;;;3.10;;
12788;SDS011;6458;42.710;23.192;2024-01-25T08:58:49;7.30;;;3.30;;
12788;SDS011;6458;42.710;23.192;2024-01-25T09:01:17;3.10;;;2.90;;
12788;SDS011;6458;42.710;23.192;2024-01-25T09:03:44;4.63;;;3.30;;
12788;SDS011;6458;42.710;23.192;2024-01-25T09:06:11;5.93;;;3.43;;
12788;SDS011;6458;42.710;23.192;2024-01-25T09:08:40;4.77;;;3.33;;
12788;SDS011;6458;42.710;23.192;2024-01-25T09:11:07;4.17;;;3.23;;
12788;SDS011;6458;42.710;23.192;2024-01-25T09:13:35;3.53;;;3.23;;
12788;SDS011;6458;42.710;23.192;2024-01-25T09:16:02;4.80;;;3.53;;
12788;SDS011;6458;42.710;23.192;2024-01-25T09:18:29;3.60;;;3.30;;
12788;SDS011;6458;42.710;23.192;2024-01-25T09:20:57;6.50;;;3.50;;
12788;SDS011;6458;42.710;23.192;2024-01-25T09:23:25;7.07;;;3.93;;
12788;SDS011;6458;42.710;23.192;2024-01-25T09:25:51;9.03;;;3.80;;
12788;SDS011;6458;42.710;23.192;2024-01-25T09:28:18;4.50;;;3.60;;
12788;SDS011;6458;42.710;23.192;2024-01-25T09:30:47;3.57;;;2.87;;
12788;SDS011;6458;42.710;23.192;2024-01-25T09:33:14;5.67;;;3.37;;
12788;SDS011;6458;42.710;23.192;2024-01-25T09:35:41;8.63;;;3.23;;
12788;SDS011;6458;42.710;23.192;2024-01-25T09:38:11;4.27;;;3.07;;
12788;SDS011;6458;42.710;23.192;2024-01-25T09:40:38;5.53;;;3.13;;
12788;SDS011;6458;42.710;23.192;2024-01-25T09:43:05;5.17;;;2.80;;
12788;SDS011;6458;42.710;23.192;2024-01-25T09:45:33;3.43;;;2.87;;
12788;SDS011;6458;42.710;23.192;2024-01-25T09:48:02;8.67;;;5.20;;
12788;SDS011;6458;42.710;23.192;2024-01-25T09:50:30;7.57;;;3.17;;
12788;SDS011;6458;42.710;23.192;2024-01-25T09:52:59;4.97;;;3.50;;
12788;SDS011;6458;42.710;23.192;2024-01-25T09:55:26;5.87;;;3.53;;
12788;SDS011;6458;42.710;23.192;2024-01-25T09:57:53;3.83;;;3.43;;
12788;SDS011;6458;42.710;23.192;2024-01-25T10:00:21;6.30;;;3.80;;
12788;SDS011;6458;42.710;23.192;2024-01-25T10:02:49;5.40;;;3.57;;
12788;SDS011;6458;42.710;23.192;2024-01-25T10:05:17;3.40;;;3.10;;
12788;SDS011;6458;42.710;23.192;2024-01-25T10:07:45;7.17;;;3.47;;
12788;SDS011;6458;42.710;23.192;2024-01-25T10:10:12;7.20;;;3.80;;
12788;SDS011;6458;42.710;23.192;2024-01-25T10:12:42;4.83;;;3.67;;
12788;SDS011;6458;42.710;23.192;2024-01-25T10:15:10;5.40;;;3.30;;
12788;SDS011;6458;42.710;23.192;2024-01-25T10:17:40;3.83;;;3.50;;
12788;SDS011;6458;42.710;23.192;2024-01-25T10:20:08;5.37;;;3.90;;
12788;SDS011;6458;42.710;23.192;2024-01-25T10:22:37;3.70;;;3.33;;
12788;SDS011;6458;42.710;23.192;2024-01-25T10:25:06;7.43;;;3.87;;
12788;SDS011;6458;42.710;23.192;2024-01-25T10:27:38;3.83;;;3.40;;
12788;SDS011;6458;42.710;23.192;2024-01-25T10:30:06;6.03;;;4.00;;
12788;SDS011;6458;42.710;23.192;2024-01-25T10:32:34;4.07;;;3.77;;
12788;SDS011;6458;42.710;23.192;2024-01-25T10:35:02;5.20;;;3.30;;
12788;SDS011;6458;42.710;23.192;2024-01-25T10:37:29;6.27;;;3.30;;
12788;SDS011;6458;42.710;23.192;2024-01-25T10:39:59;4.17;;;3.83;;
12788;SDS011;6458;42.710;23.192;2024-01-25T10:42:26;4.93;;;3.50;;
12788;SDS011;6458;42.710;23.192;2024-01-25T10:44:53;3.80;;;3.30;;
12788;SDS011;6458;42.710;23.192;2024-01-25T10:47:20;4.83;;;3.67;;
12788;SDS011;6458;42.710;23.192;2024-01-25T10:49:47;4.40;;;3.40;;
12788;SDS011;6458;42.710;23.192;2024-01-25T10:52:15;4.27;;;3.13;;
12788;SDS011;6458;42.710;23.192;2024-01-25T10:54:42;7.20;;;3.40;;
12788;SDS011;6458;42.710;23.192;2024-01-25T10:57:11;4.10;;;3.73;;
12788;SDS011;6458;42.710;23.192;2024-01-25T10:59:38;6.77;;;3.57;;
12788;SDS011;6458;42.710;23.192;2024-01-25T11:02:05;5.63;;;3.30;;
12788;SDS011;6458;42.710;23.192;2024-01-25T11:04:36;3.50;;;3.20;;
12788;SDS011;6458;42.710;23.192;2024-01-25T11:07:06;4.57;;;3.90;;
12788;SDS011;6458;42.710;23.192;2024-01-25T11:09:34;3.93;;;3.57;;
12788;SDS011;6458;42.710;23.192;2024-01-25T11:12:08;5.53;;;3.30;;
12788;SDS011;6458;42.710;23.192;2024-01-25T11:14:41;4.63;;;3.53;;
12788;SDS011;6458;42.710;23.192;2024-01-25T11:17:14;4.47;;;3.80;;
12788;SDS011;6458;42.710;23.192;2024-01-25T11:19:44;6.00;;;3.10;;
12788;SDS011;6458;42.710;23.192;2024-01-25T11:22:11;6.40;;;3.27;;
12788;SDS011;6458;42.710;23.192;2024-01-25T11:24:38;2.80;;;2.60;;
12788;SDS011;6458;42.710;23.192;2024-01-25T11:27:05;4.17;;;3.60;;
12788;SDS011;6458;42.710;23.192;2024-01-25T11:29:38;4.70;;;3.30;;
12788;SDS011;6458;42.710;23.192;2024-01-25T11:32:05;6.20;;;3.47;;
12788;SDS011;6458;42.710;23.192;2024-01-25T11:34:32;5.20;;;3.50;;
12788;SDS011;6458;42.710;23.192;2024-01-25T11:36:59;4.10;;;3.63;;
12788;SDS011;6458;42.710;23.192;2024-01-25T11:39:26;6.07;;;3.40;;
12788;SDS011;6458;42.710;23.192;2024-01-25T11:41:53;6.43;;;3.40;;
12788;SDS011;6458;42.710;23.192;2024-01-25T11:44:20;4.00;;;2.77;;
12788;SDS011;6458;42.710;23.192;2024-01-25T11:46:53;3.70;;;3.03;;
12788;SDS011;6458;42.710;23.192;2024-01-25T11:49:22;8.13;;;3.90;;
12788;SDS011;6458;42.710;23.192;2024-01-25T11:51:50;6.47;;;3.57;;
12788;SDS011;6458;42.710;23.192;2024-01-25T11:54:17;4.80;;;3.40;;
12788;SDS011;6458;42.710;23.192;2024-01-25T11:56:44;5.80;;;3.33;;
12788;SDS011;6458;42.710;23.192;2024-01-25T11:59:12;4.57;;;3.03;;
12788;SDS011;6458;42.710;23.192;2024-01-25T12:01:40;6.13;;;3.43;;
12788;SDS011;6458;42.710;23.192;2024-01-25T12:04:08;6.90;;;3.87;;
12788;SDS011;6458;42.710;23.192;2024-01-25T12:06:35;4.00;;;3.20;;
12788;SDS011;6458;42.710;23.192;2024-01-25T12:09:07;4.47;;;3.27;;
12788;SDS011;6458;42.710;23.192;2024-01-25T12:11:34;5.80;;;3.10;;
12788;SDS011;6458;42.710;23.192;2024-01-25T12:14:01;4.37;;;2.70;;
12788;SDS011;6458;42.710;23.192;2024-01-25T12:16:28;5.73;;;3.27;;
12788;SDS011;6458;42.710;23.192;2024-01-25T12:18:55;5.97;;;3.47;;
12788;SDS011;6458;42.710;23.192;2024-01-25T12:21:23;5.87;;;3.93;;
12788;SDS011;6458;42.710;23.192;2024-01-25T12:23:50;3.73;;;3.13;;
12788;SDS011;6458;42.710;23.192;2024-01-25T12:26:17;3.63;;;3.17;;
12788;SDS011;6458;42.710;23.192;2024-01-25T12:28:44;3.97;;;3.00;;
12788;SDS011;6458;42.710;23.192;2024-01-25T12:31:14;6.77;;;3.20;;
12788;SDS011;6458;42.710;23.192;2024-01-25T12:33:43;6.03;;;3.10;;
12788;SDS011;6458;42.710;23.192;2024-01-25T12:36:10;5.87;;;3.27;;
12788;SDS011;6458;42.710;23.192;2024-01-25T12:38:38;5.37;;;2.80;;
12788;SDS011;6458;42.710;23.192;2024-01-25T12:41:06;6.73;;;3.50;;
12788;SDS011;6458;42.710;23.192;2024-01-25T12:43:33;3.30;;;3.00;;
12788;SDS011;6458;42.710;23.192;2024-01-25T12:46:00;5.03;;;3.03;;
12788;SDS011;6458;42.710;23.192;2024-01-25T12:48:27;5.40;;;3.23;;
12788;SDS011;6458;42.710;23.192;2024-01-25T12:50:54;3.27;;;2.80;;
12788;SDS011;6458;42.710;23.192;2024-01-25T12:53:21;4.53;;;2.90;;
12788;SDS011;6458;42.710;23.192;2024-01-25T12:55:52;4.73;;;3.13;;
12788;SDS011;6458;42.710;23.192;2024-01-25T12:58:19;7.73;;;2.57;;
12788;SDS011;6458;42.710;23.192;2024-01-25T13:00:46;9.53;;;3.00;;
12788;SDS011;6458;42.710;23.192;2024-01-25T13:03:13;6.30;;;2.90;;
12788;SDS011;6458;42.710;23.192;2024-01-25T13:05:40;4.73;;;3.10;;
12788;SDS011;6458;42.710;23.192;2024-01-25T13:08:07;5.67;;;3.20;;
12788;SDS011;6458;42.710;23.192;2024-01-25T13:10:33;5.47;;;3.17;;
12788;SDS011;6458;42.710;23.192;2024-01-25T13:13:02;4.10;;;3.30;;
12788;SDS011;6458;42.710;23.192;2024-01-25T13:15:29;3.80;;;3.00;;
12788;SDS011;6458;42.710;23.192;2024-01-25T13:17:56;6.47;;;3.30;;
12788;SDS011;6458;42.710;23.192;2024-01-25T13:20:23;5.60;;;3.30;;
12788;SDS011;6458;42.710;23.192;2024-01-25T13:22:50;3.30;;;3.00;;
12788;SDS011;6458;42.710;23.192;2024-01-25T13:25:17;5.00;;;3.47;;
12788;SDS011;6458;42.710;23.192;2024-01-25T13:27:46;8.03;;;2.87;;
12788;SDS011;6458;42.710;23.192;2024-01-25T13:30:14;6.10;;;2.77;;
12788;SDS011;6458;42.710;23.192;2024-01-25T13:32:41;5.83;;;3.13;;
12788;SDS011;6458;42.710;23.192;2024-01-25T13:35:08;4.03;;;2.90;;
12788;SDS011;6458;42.710;23.192;2024-01-25T13:37:35;5.57;;;3.30;;
12788;SDS011;6458;42.710;23.192;2024-01-25T13:40:04;6.97;;;3.23;;
12788;SDS011;6458;42.710;23.192;2024-01-25T13:42:33;3.47;;;2.90;;
12788;SDS011;6458;42.710;23.192;2024-01-25T13:45:00;5.87;;;3.30;;
12788;SDS011;6458;42.710;23.192;2024-01-25T13:47:28;7.73;;;3.40;;
12788;SDS011;6458;42.710;23.192;2024-01-25T13:49:55;3.97;;;3.33;;
12788;SDS011;6458;42.710;23.192;2024-01-25T13:52:22;11.93;;;3.07;;
12788;SDS011;6458;42.710;23.192;2024-01-25T13:54:50;6.83;;;3.23;;
12788;SDS011;6458;42.710;23.192;2024-01-25T13:57:17;6.63;;;3.70;;
12788;SDS011;6458;42.710;23.192;2024-01-25T13:59:48;6.17;;;3.67;;
12788;SDS011;6458;42.710;23.192;2024-01-25T14:02:15;4.87;;;3.40;;
12788;SDS011;6458;42.710;23.192;2024-01-25T14:04:44;6.37;;;3.60;;
12788;SDS011;6458;42.710;23.192;2024-01-25T14:07:11;7.47;;;3.30;;
12788;SDS011;6458;42.710;23.192;2024-01-25T14:09:37;6.33;;;3.37;;
12788;SDS011;6458;42.710;23.192;2024-01-25T14:12:06;6.67;;;3.60;;
12788;SDS011;6458;42.710;23.192;2024-01-25T14:14:33;7.97;;;4.33;;
12788;SDS011;6458;42.710;23.192;2024-01-25T14:17:00;6.63;;;3.17;;
12788;SDS011;6458;42.710;23.192;2024-01-25T14:19:27;7.27;;;4.00;;
12788;SDS011;6458;42.710;23.192;2024-01-25T14:21:55;6.10;;;2.97;;
12788;SDS011;6458;42.710;23.192;2024-01-25T14:24:22;4.40;;;3.23;;
12788;SDS011;6458;42.710;23.192;2024-01-25T14:26:49;5.70;;;3.67;;
12788;SDS011;6458;42.710;23.192;2024-01-25T14:29:15;5.47;;;3.20;;
12788;SDS011;6458;42.710;23.192;2024-01-25T14:31:42;9.23;;;3.83;;
12788;SDS011;6458;42.710;23.192;2024-01-25T14:34:09;5.33;;;3.20;;
12788;SDS011;6458;42.710;23.192;2024-01-25T14:36:36;7.53;;;3.20;;
12788;SDS011;6458;42.710;23.192;2024-01-25T14:39:05;7.73;;;3.47;;
12788;SDS011;6458;42.710;23.192;2024-01-25T14:41:33;3.30;;;3.03;;
12788;SDS011;6458;42.710;23.192;2024-01-25T14:44:00;7.93;;;3.67;;
12788;SDS011;6458;42.710;23.192;2024-01-25T14:46:27;5.03;;;3.47;;
12788;SDS011;6458;42.710;23.192;2024-01-25T14:48:54;5.87;;;3.10;;
12788;SDS011;6458;42.710;23.192;2024-01-25T14:51:23;4.90;;;3.33;;
12788;SDS011;6458;42.710;23.192;2024-01-25T14:53:50;9.27;;;3.67;;
12788;SDS011;6458;42.710;23.192;2024-01-25T14:56:19;4.87;;;3.30;;
12788;SDS011;6458;42.710;23.192;2024-01-25T14:58:46;6.33;;;3.53;;
12788;SDS011;6458;42.710;23.192;2024-01-25T15:01:13;6.23;;;3.77;;
12788;SDS011;6458;42.710;23.192;2024-01-25T15:03:42;5.43;;;3.43;;